Portada
METAR-TAF:

METAR-TAF

Aeroports :

Sion, Suïssa

latitud: 46-13N, longitud: 007-20E, altitud: 482 m

Observació

L'informe es va fer fa 30 minuts, a les 06:20 UTC
Vent 4 kt del Est/Sud-Est
Temperatura 3°C
Humitat 75%
Pressió 1012 hPa
Visibilitat 10 km o més
sense núvols per sota de 1500 mi sense presència de cumulonimbus.

METAR: LSGS 250620Z 11004KT CAVOK 03/M01 Q1012

Hora: 07:50 (06:50 UTC)

Pronòstic

L'informe es va fer fa 1 hora i 25 minuts, a les 05:25 UTC
Pronòstic vàlid del 25 a les 06 UTC al 25 a les 15 UTC
Vent 3 kt amb direcció variable
Visibilitat 10 km o més
sense núvols per sota de 1500 mi sense presència de cumulonimbus.
Evolucionant progressivament
l' 25 a les 10 UTC al 25 a les 13 UTC
Visibilitat 10 km o més
Núvols disperses a una alçada de 3000 ft
Cel ennuvolat a una alçada de 6000 ft
Temporalment
l' 25 a les 13 UTC al 25 a les 15 UTC
pluja

TAF: LSGS 250525Z 2506/2515 VRB03KT CAVOK BECMG 2510/2513 9999 SCT030 BKN060 TEMPO 2513/2515 RA

Observacions i pronòstics meteorològics de més de 4000 aeroports (METAR i TAF).

Les estacions disponibles són els punts grocs i vermells al mapa.

Posi el ratolí al punt desitjat per veure el nom de l'estació.

Feu clic per veure les observacions i els pronòstics meteorològics.

Per canviar el mapa: feu clic els botons verds amb una creu de color negre per apropar; al botó verd amb un guió per allunyar la imatge; o en les fletxes verdes per a mapes adjacents.


METAR-TAF: